sensor_id;sensor_type;location;lat;lon;timestamp;temperature;humidity
9668;DHT22;4872;48.316;10.650;2022-11-30T04:52:33;4.20;99.90
9668;DHT22;4872;48.316;10.650;2022-11-30T04:55:00;4.20;99.90
9668;DHT22;4872;48.316;10.650;2022-11-30T04:57:28;4.20;99.90
9668;DHT22;4872;48.316;10.650;2022-11-30T04:59:55;4.10;99.90
9668;DHT22;4872;48.316;10.650;2022-11-30T05:02:22;4.30;99.90
9668;DHT22;4872;48.316;10.650;2022-11-30T05:04:49;4.20;99.90
9668;DHT22;4872;48.316;10.650;2022-11-30T05:07:16;4.20;99.90
9668;DHT22;4872;48.316;10.650;2022-11-30T05:09:44;4.20;99.90
9668;DHT22;4872;48.316;10.650;2022-11-30T05:12:11;4.20;99.90
9668;DHT22;4872;48.316;10.650;2022-11-30T05:14:37;4.20;99.90
9668;DHT22;4872;48.316;10.650;2022-11-30T05:17:04;4.20;99.90
9668;DHT22;4872;48.316;10.650;2022-11-30T05:19:31;4.10;99.90
9668;DHT22;4872;48.316;10.650;2022-11-30T05:21:58;4.20;99.90
9668;DHT22;4872;48.316;10.650;2022-11-30T05:24:24;4.10;99.90
9668;DHT22;4872;48.316;10.650;2022-11-30T05:26:53;4.10;99.90
9668;DHT22;4872;48.316;10.650;2022-11-30T05:29:20;4.20;99.90
9668;DHT22;4872;48.316;10.650;2022-11-30T05:31:46;4.20;99.90
9668;DHT22;4872;48.316;10.650;2022-11-30T05:34:13;4.10;99.90
9668;DHT22;4872;48.316;10.650;2022-11-30T05:36:40;4.10;99.90
9668;DHT22;4872;48.316;10.650;2022-11-30T05:39:07;4.10;99.90
9668;DHT22;4872;48.316;10.650;2022-11-30T05:41:34;4.10;99.90
9668;DHT22;4872;48.316;10.650;2022-11-30T05:44:02;4.10;99.90
9668;DHT22;4872;48.316;10.650;2022-11-30T05:46:29;4.00;99.90
9668;DHT22;4872;48.316;10.650;2022-11-30T05:48:56;4.10;99.90
9668;DHT22;4872;48.316;10.650;2022-11-30T05:51:23;3.90;99.90
9668;DHT22;4872;48.316;10.650;2022-11-30T05:53:49;3.90;99.90
9668;DHT22;4872;48.316;10.650;2022-11-30T05:56:18;3.90;99.90
9668;DHT22;4872;48.316;10.650;2022-11-30T05:58:46;3.80;99.90
9668;DHT22;4872;48.316;10.650;2022-11-30T06:01:18;3.80;99.90
9668;DHT22;4872;48.316;10.650;2022-11-30T06:03:45;3.90;99.90
9668;DHT22;4872;48.316;10.650;2022-11-30T06:06:12;3.90;99.90
9668;DHT22;4872;48.316;10.650;2022-11-30T06:08:39;4.00;99.90
9668;DHT22;4872;48.316;10.650;2022-11-30T06:11:06;4.10;99.90
9668;DHT22;4872;48.316;10.650;2022-11-30T06:13:33;3.90;99.90
9668;DHT22;4872;48.316;10.650;2022-11-30T06:16:00;3.90;99.90
9668;DHT22;4872;48.316;10.650;2022-11-30T06:18:29;4.00;99.90
9668;DHT22;4872;48.316;10.650;2022-11-30T06:20:59;4.00;99.90
9668;DHT22;4872;48.316;10.650;2022-11-30T06:23:27;4.00;99.90
9668;DHT22;4872;48.316;10.650;2022-11-30T06:25:53;4.10;99.90
9668;DHT22;4872;48.316;10.650;2022-11-30T06:28:20;4.10;99.90
9668;DHT22;4872;48.316;10.650;2022-11-30T06:30:47;4.10;99.90
9668;DHT22;4872;48.316;10.650;2022-11-30T06:33:14;4.10;99.90
9668;DHT22;4872;48.316;10.650;2022-11-30T06:35:45;4.10;99.90
9668;DHT22;4872;48.316;10.650;2022-11-30T06:38:12;4.10;99.90
9668;DHT22;4872;48.316;10.650;2022-11-30T06:40:39;4.10;99.90
9668;DHT22;4872;48.316;10.650;2022-11-30T06:43:05;4.30;99.90
9668;DHT22;4872;48.316;10.650;2022-11-30T06:45:32;4.10;99.90
9668;DHT22;4872;48.316;10.650;2022-11-30T06:47:59;4.10;99.90
9668;DHT22;4872;48.316;10.650;2022-11-30T06:50:26;4.20;99.90
9668;DHT22;4872;48.316;10.650;2022-11-30T06:52:54;4.10;99.90
9668;DHT22;4872;48.316;10.650;2022-11-30T06:55:21;4.10;99.90
9668;DHT22;4872;48.316;10.650;2022-11-30T06:57:48;4.10;99.90
9668;DHT22;4872;48.316;10.650;2022-11-30T07:00:16;4.10;99.90
9668;DHT22;4872;48.316;10.650;2022-11-30T07:02:43;4.20;99.90
9668;DHT22;4872;48.316;10.650;2022-11-30T07:05:10;4.20;99.90
9668;DHT22;4872;48.316;10.650;2022-11-30T07:07:37;4.10;99.90
9668;DHT22;4872;48.316;10.650;2022-11-30T07:10:06;4.10;99.90
9668;DHT22;4872;48.316;10.650;2022-11-30T07:12:34;4.10;99.90
9668;DHT22;4872;48.316;10.650;2022-11-30T07:15:00;4.10;99.90
9668;DHT22;4872;48.316;10.650;2022-11-30T07:17:27;4.20;99.90
9668;DHT22;4872;48.316;10.650;2022-11-30T07:19:54;4.10;99.90
9668;DHT22;4872;48.316;10.650;2022-11-30T07:22:21;4.10;99.90
9668;DHT22;4872;48.316;10.650;2022-11-30T07:24:48;4.10;99.90
9668;DHT22;4872;48.316;10.650;2022-11-30T07:27:33;4.10;99.90
9668;DHT22;4872;48.316;10.650;2022-11-30T07:30:00;4.20;99.90
9668;DHT22;4872;48.316;10.650;2022-11-30T07:32:27;4.20;99.90
9668;DHT22;4872;48.316;10.650;2022-11-30T07:34:54;4.20;99.90
9668;DHT22;4872;48.316;10.650;2022-11-30T07:37:21;4.20;99.90
9668;DHT22;4872;48.316;10.650;2022-11-30T07:39:48;4.20;99.90
9668;DHT22;4872;48.316;10.650;2022-11-30T07:42:15;4.20;99.90
9668;DHT22;4872;48.316;10.650;2022-11-30T07:44:43;4.20;99.90
9668;DHT22;4872;48.316;10.650;2022-11-30T07:47:10;4.10;99.90
9668;DHT22;4872;48.316;10.650;2022-11-30T07:49:37;4.10;99.90
9668;DHT22;4872;48.316;10.650;2022-11-30T07:52:04;4.10;99.90
9668;DHT22;4872;48.316;10.650;2022-11-30T07:54:31;4.10;99.90
9668;DHT22;4872;48.316;10.650;2022-11-30T07:56:58;4.20;99.90
9668;DHT22;4872;48.316;10.650;2022-11-30T07:59:25;4.20;99.90
9668;DHT22;4872;48.316;10.650;2022-11-30T08:01:53;4.20;99.90
9668;DHT22;4872;48.316;10.650;2022-11-30T08:04:20;4.20;99.90
9668;DHT22;4872;48.316;10.650;2022-11-30T08:06:46;4.20;99.90
9668;DHT22;4872;48.316;10.650;2022-11-30T08:09:13;4.20;99.90
9668;DHT22;4872;48.316;10.650;2022-11-30T08:11:40;4.20;99.90
9668;DHT22;4872;48.316;10.650;2022-11-30T08:14:10;4.20;99.90
9668;DHT22;4872;48.316;10.650;2022-11-30T08:16:37;4.20;99.90
9668;DHT22;4872;48.316;10.650;2022-11-30T08:19:05;4.30;99.90
9668;DHT22;4872;48.316;10.650;2022-11-30T08:21:32;4.20;99.90
9668;DHT22;4872;48.316;10.650;2022-11-30T08:23:59;4.20;99.90
9668;DHT22;4872;48.316;10.650;2022-11-30T08:26:28;4.10;99.90
9668;DHT22;4872;48.316;10.650;2022-11-30T08:28:55;4.20;99.90
9668;DHT22;4872;48.316;10.650;2022-11-30T08:31:24;4.20;99.90
9668;DHT22;4872;48.316;10.650;2022-11-30T08:33:54;4.20;99.90
9668;DHT22;4872;48.316;10.650;2022-11-30T08:36:24;4.10;99.90
9668;DHT22;4872;48.316;10.650;2022-11-30T08:38:51;4.20;99.90
9668;DHT22;4872;48.316;10.650;2022-11-30T08:41:20;4.20;99.90
9668;DHT22;4872;48.316;10.650;2022-11-30T08:43:48;4.20;99.90
9668;DHT22;4872;48.316;10.650;2022-11-30T08:46:17;4.20;99.90
9668;DHT22;4872;48.316;10.650;2022-11-30T08:48:44;4.20;99.90
9668;DHT22;4872;48.316;10.650;2022-11-30T08:51:12;4.20;99.90
9668;DHT22;4872;48.316;10.650;2022-11-30T08:53:41;4.30;99.90
9668;DHT22;4872;48.316;10.650;2022-11-30T08:56:11;4.30;99.90
9668;DHT22;4872;48.316;10.650;2022-11-30T08:58:38;4.30;99.90
9668;DHT22;4872;48.316;10.650;2022-11-30T09:01:06;4.30;99.90
9668;DHT22;4872;48.316;10.650;2022-11-30T09:03:33;4.30;99.90
9668;DHT22;4872;48.316;10.650;2022-11-30T09:06:05;4.30;99.90
9668;DHT22;4872;48.316;10.650;2022-11-30T09:08:32;4.40;99.90
9668;DHT22;4872;48.316;10.650;2022-11-30T09:11:08;4.40;99.90
9668;DHT22;4872;48.316;10.650;2022-11-30T09:13:35;4.40;99.90
9668;DHT22;4872;48.316;10.650;2022-11-30T09:16:02;4.40;99.90
9668;DHT22;4872;48.316;10.650;2022-11-30T09:18:29;4.40;99.90
9668;DHT22;4872;48.316;10.650;2022-11-30T09:20:58;4.40;99.90
9668;DHT22;4872;48.316;10.650;2022-11-30T09:23:26;4.40;99.90
9668;DHT22;4872;48.316;10.650;2022-11-30T09:25:54;4.40;99.90
9668;DHT22;4872;48.316;10.650;2022-11-30T09:28:23;4.40;99.90
9668;DHT22;4872;48.316;10.650;2022-11-30T09:30:50;4.50;99.90
9668;DHT22;4872;48.316;10.650;2022-11-30T09:33:17;4.50;99.90
9668;DHT22;4872;48.316;10.650;2022-11-30T09:35:44;4.50;99.90
9668;DHT22;4872;48.316;10.650;2022-11-30T09:38:11;4.50;99.90
9668;DHT22;4872;48.316;10.650;2022-11-30T09:40:39;4.60;99.90
9668;DHT22;4872;48.316;10.650;2022-11-30T09:43:16;4.50;99.90
9668;DHT22;4872;48.316;10.650;2022-11-30T09:45:52;4.50;99.90
9668;DHT22;4872;48.316;10.650;2022-11-30T09:48:28;4.50;99.90
9668;DHT22;4872;48.316;10.650;2022-11-30T09:50:59;4.50;99.90
9668;DHT22;4872;48.316;10.650;2022-11-30T09:53:40;4.50;99.90
9668;DHT22;4872;48.316;10.650;2022-11-30T09:56:20;4.50;99.90
9668;DHT22;4872;48.316;10.650;2022-11-30T09:58:52;4.70;99.90
9668;DHT22;4872;48.316;10.650;2022-11-30T10:01:21;4.60;99.90
9668;DHT22;4872;48.316;10.650;2022-11-30T10:03:49;4.70;99.90
9668;DHT22;4872;48.316;10.650;2022-11-30T10:06:21;4.70;99.90
9668;DHT22;4872;48.316;10.650;2022-11-30T10:09:06;4.70;99.90
9668;DHT22;4872;48.316;10.650;2022-11-30T10:11:42;4.70;99.90
9668;DHT22;4872;48.316;10.650;2022-11-30T10:17:28;4.70;99.90
9668;DHT22;4872;48.316;10.650;2022-11-30T10:20:13;4.70;99.90
9668;DHT22;4872;48.316;10.650;2022-11-30T10:22:57;4.70;99.90
9668;DHT22;4872;48.316;10.650;2022-11-30T10:25:32;4.70;99.90
9668;DHT22;4872;48.316;10.650;2022-11-30T10:28:07;4.70;99.90
9668;DHT22;4872;48.316;10.650;2022-11-30T10:30:41;4.70;99.90
9668;DHT22;4872;48.316;10.650;2022-11-30T10:33:15;4.80;99.90
9668;DHT22;4872;48.316;10.650;2022-11-30T10:35:45;4.90;99.90
9668;DHT22;4872;48.316;10.650;2022-11-30T10:38:15;4.90;99.90
9668;DHT22;4872;48.316;10.650;2022-11-30T10:40:48;4.80;99.90
9668;DHT22;4872;48.316;10.650;2022-11-30T10:43:19;4.80;99.90
9668;DHT22;4872;48.316;10.650;2022-11-30T10:45:48;4.90;99.90
9668;DHT22;4872;48.316;10.650;2022-11-30T10:48:23;4.90;99.90
9668;DHT22;4872;48.316;10.650;2022-11-30T10:50:51;4.90;99.90
9668;DHT22;4872;48.316;10.650;2022-11-30T10:53:19;5.00;99.90
9668;DHT22;4872;48.316;10.650;2022-11-30T10:55:53;5.10;99.90
9668;DHT22;4872;48.316;10.650;2022-11-30T10:58:25;5.00;99.90
9668;DHT22;4872;48.316;10.650;2022-11-30T11:01:00;4.90;99.90
9668;DHT22;4872;48.316;10.650;2022-11-30T11:03:28;4.90;99.90
9668;DHT22;4872;48.316;10.650;2022-11-30T11:06:05;4.90;99.90
9668;DHT22;4872;48.316;10.650;2022-11-30T11:08:33;4.90;99.90
9668;DHT22;4872;48.316;10.650;2022-11-30T11:11:00;5.00;99.90
9668;DHT22;4872;48.316;10.650;2022-11-30T11:13:38;4.90;99.90
9668;DHT22;4872;48.316;10.650;2022-11-30T11:16:07;4.90;99.90
9668;DHT22;4872;48.316;10.650;2022-11-30T11:18:38;4.90;99.90
9668;DHT22;4872;48.316;10.650;2022-11-30T11:21:18;4.90;99.90
9668;DHT22;4872;48.316;10.650;2022-11-30T11:23:49;4.90;99.90
9668;DHT22;4872;48.316;10.650;2022-11-30T11:26:18;4.90;99.90
9668;DHT22;4872;48.316;10.650;2022-11-30T11:28:47;5.00;99.90
9668;DHT22;4872;48.316;10.650;2022-11-30T11:31:17;4.90;99.90
9668;DHT22;4872;48.316;10.650;2022-11-30T11:33:51;4.90;99.90
9668;DHT22;4872;48.316;10.650;2022-11-30T11:36:24;5.00;99.90
9668;DHT22;4872;48.316;10.650;2022-11-30T11:38:51;5.00;99.90
9668;DHT22;4872;48.316;10.650;2022-11-30T11:41:20;5.00;99.90
9668;DHT22;4872;48.316;10.650;2022-11-30T11:43:59;5.00;99.90
9668;DHT22;4872;48.316;10.650;2022-11-30T11:46:27;5.00;99.90
9668;DHT22;4872;48.316;10.650;2022-11-30T11:48:58;5.00;99.90
9668;DHT22;4872;48.316;10.650;2022-11-30T11:51:30;5.00;99.90
9668;DHT22;4872;48.316;10.650;2022-11-30T11:54:00;5.00;99.90
9668;DHT22;4872;48.316;10.650;2022-11-30T11:56:29;5.00;99.90
9668;DHT22;4872;48.316;10.650;2022-11-30T11:58:59;5.00;99.90
9668;DHT22;4872;48.316;10.650;2022-11-30T12:01:45;4.90;99.90
9668;DHT22;4872;48.316;10.650;2022-11-30T12:04:41;4.90;99.90
9668;DHT22;4872;48.316;10.650;2022-11-30T12:07:19;4.90;99.90
9668;DHT22;4872;48.316;10.650;2022-11-30T12:10:03;4.90;99.90
9668;DHT22;4872;48.316;10.650;2022-11-30T12:12:31;5.00;99.90
9668;DHT22;4872;48.316;10.650;2022-11-30T12:15:00;5.00;99.90
9668;DHT22;4872;48.316;10.650;2022-11-30T12:17:41;4.90;99.90
9668;DHT22;4872;48.316;10.650;2022-11-30T12:20:19;4.90;99.90
9668;DHT22;4872;48.316;10.650;2022-11-30T12:23:00;4.90;99.90
9668;DHT22;4872;48.316;10.650;2022-11-30T12:25:33;4.90;99.90
9668;DHT22;4872;48.316;10.650;2022-11-30T12:28:12;4.80;99.90
9668;DHT22;4872;48.316;10.650;2022-11-30T12:30:49;4.80;99.90
9668;DHT22;4872;48.316;10.650;2022-11-30T12:33:25;4.80;99.90
9668;DHT22;4872;48.316;10.650;2022-11-30T12:36:02;4.80;99.90
9668;DHT22;4872;48.316;10.650;2022-11-30T12:38:39;4.70;99.90
9668;DHT22;4872;48.316;10.650;2022-11-30T12:41:21;4.70;99.90
9668;DHT22;4872;48.316;10.650;2022-11-30T12:44:00;4.70;99.90
9668;DHT22;4872;48.316;10.650;2022-11-30T12:46:35;4.70;99.90
9668;DHT22;4872;48.316;10.650;2022-11-30T12:49:18;4.70;99.90
9668;DHT22;4872;48.316;10.650;2022-11-30T12:51:56;4.80;99.90
9668;DHT22;4872;48.316;10.650;2022-11-30T12:54:28;4.80;99.90
9668;DHT22;4872;48.316;10.650;2022-11-30T12:57:07;4.80;99.90
9668;DHT22;4872;48.316;10.650;2022-11-30T12:59:41;4.80;99.90
9668;DHT22;4872;48.316;10.650;2022-11-30T13:02:33;4.90;99.90
9668;DHT22;4872;48.316;10.650;2022-11-30T13:05:07;4.80;99.90
9668;DHT22;4872;48.316;10.650;2022-11-30T13:07:39;4.80;99.90
9668;DHT22;4872;48.316;10.650;2022-11-30T13:10:16;4.80;99.90
9668;DHT22;4872;48.316;10.650;2022-11-30T13:12:47;4.80;99.90
9668;DHT22;4872;48.316;10.650;2022-11-30T13:15:18;4.80;99.90
9668;DHT22;4872;48.316;10.650;2022-11-30T13:17:46;4.90;99.90
9668;DHT22;4872;48.316;10.650;2022-11-30T13:20:21;4.90;99.90
9668;DHT22;4872;48.316;10.650;2022-11-30T13:22:54;4.90;99.90
9668;DHT22;4872;48.316;10.650;2022-11-30T13:25:28;4.90;99.90
9668;DHT22;4872;48.316;10.650;2022-11-30T13:28:05;4.90;99.90
9668;DHT22;4872;48.316;10.650;2022-11-30T13:30:41;4.90;99.90
9668;DHT22;4872;48.316;10.650;2022-11-30T13:33:44;4.90;99.90
9668;DHT22;4872;48.316;10.650;2022-11-30T13:36:36;4.90;99.90
9668;DHT22;4872;48.316;10.650;2022-11-30T13:39:22;4.90;99.90
9668;DHT22;4872;48.316;10.650;2022-11-30T13:44:34;4.80;99.90
9668;DHT22;4872;48.316;10.650;2022-11-30T13:47:04;4.70;99.90
9668;DHT22;4872;48.316;10.650;2022-11-30T13:49:32;4.60;99.90
9668;DHT22;4872;48.316;10.650;2022-11-30T13:52:00;4.60;99.90
9668;DHT22;4872;48.316;10.650;2022-11-30T13:54:39;4.60;99.90
9668;DHT22;4872;48.316;10.650;2022-11-30T13:57:17;4.60;99.90
9668;DHT22;4872;48.316;10.650;2022-11-30T14:03:22;4.80;99.90
9668;DHT22;4872;48.316;10.650;2022-11-30T14:05:51;4.90;99.90
9668;DHT22;4872;48.316;10.650;2022-11-30T14:08:36;5.00;99.90
9668;DHT22;4872;48.316;10.650;2022-11-30T14:11:39;5.10;99.90
9668;DHT22;4872;48.316;10.650;2022-11-30T14:17:16;5.20;99.90
9668;DHT22;4872;48.316;10.650;2022-11-30T14:19:44;5.20;99.90
9668;DHT22;4872;48.316;10.650;2022-11-30T14:22:13;5.20;99.90
9668;DHT22;4872;48.316;10.650;2022-11-30T14:24:41;5.30;99.90
9668;DHT22;4872;48.316;10.650;2022-11-30T14:27:15;4.90;99.90
9668;DHT22;4872;48.316;10.650;2022-11-30T14:29:43;4.90;99.90
9668;DHT22;4872;48.316;10.650;2022-11-30T14:32:15;4.90;99.90
9668;DHT22;4872;48.316;10.650;2022-11-30T14:34:47;4.80;99.90
9668;DHT22;4872;48.316;10.650;2022-11-30T14:37:18;4.80;99.90
9668;DHT22;4872;48.316;10.650;2022-11-30T14:39:47;4.70;99.90
9668;DHT22;4872;48.316;10.650;2022-11-30T14:42:19;4.70;99.90
9668;DHT22;4872;48.316;10.650;2022-11-30T14:44:46;4.70;99.90
9668;DHT22;4872;48.316;10.650;2022-11-30T14:47:21;4.60;99.90
9668;DHT22;4872;48.316;10.650;2022-11-30T14:49:50;4.60;99.90
9668;DHT22;4872;48.316;10.650;2022-11-30T14:52:31;4.60;99.90
9668;DHT22;4872;48.316;10.650;2022-11-30T14:55:10;4.70;99.90
9668;DHT22;4872;48.316;10.650;2022-11-30T14:57:44;4.70;99.90
9668;DHT22;4872;48.316;10.650;2022-11-30T15:00:15;4.60;99.90
9668;DHT22;4872;48.316;10.650;2022-11-30T15:02:44;4.50;99.90
9668;DHT22;4872;48.316;10.650;2022-11-30T15:05:14;4.50;99.90
9668;DHT22;4872;48.316;10.650;2022-11-30T15:07:42;4.50;99.90
9668;DHT22;4872;48.316;10.650;2022-11-30T15:10:13;4.50;99.90
9668;DHT22;4872;48.316;10.650;2022-11-30T15:12:41;4.50;99.90
9668;DHT22;4872;48.316;10.650;2022-11-30T15:15:14;4.50;99.90
9668;DHT22;4872;48.316;10.650;2022-11-30T15:17:47;4.40;99.90
9668;DHT22;4872;48.316;10.650;2022-11-30T15:20:22;4.40;99.90
9668;DHT22;4872;48.316;10.650;2022-11-30T15:22:50;4.40;99.90
9668;DHT22;4872;48.316;10.650;2022-11-30T15:25:18;4.40;99.90
9668;DHT22;4872;48.316;10.650;2022-11-30T15:27:45;4.30;99.90
9668;DHT22;4872;48.316;10.650;2022-11-30T15:30:14;4.30;99.90
9668;DHT22;4872;48.316;10.650;2022-11-30T15:32:48;4.30;99.90
9668;DHT22;4872;48.316;10.650;2022-11-30T15:35:20;4.30;99.90
9668;DHT22;4872;48.316;10.650;2022-11-30T15:37:48;4.30;99.90
9668;DHT22;4872;48.316;10.650;2022-11-30T15:40:28;4.30;99.90
9668;DHT22;4872;48.316;10.650;2022-11-30T15:42:55;4.30;99.90
9668;DHT22;4872;48.316;10.650;2022-11-30T15:45:27;4.20;99.90
9668;DHT22;4872;48.316;10.650;2022-11-30T15:47:56;4.20;99.90
9668;DHT22;4872;48.316;10.650;2022-11-30T15:50:38;4.20;99.90
9668;DHT22;4872;48.316;10.650;2022-11-30T15:53:30;4.20;99.90
9668;DHT22;4872;48.316;10.650;2022-11-30T15:55:58;4.20;99.90
9668;DHT22;4872;48.316;10.650;2022-11-30T15:58:33;4.20;99.90
9668;DHT22;4872;48.316;10.650;2022-11-30T16:01:05;4.20;99.90
9668;DHT22;4872;48.316;10.650;2022-11-30T16:04:01;4.20;99.90
9668;DHT22;4872;48.316;10.650;2022-11-30T16:06:30;4.20;99.90
9668;DHT22;4872;48.316;10.650;2022-11-30T16:09:03;4.20;99.90
9668;DHT22;4872;48.316;10.650;2022-11-30T16:11:32;4.20;99.90
9668;DHT22;4872;48.316;10.650;2022-11-30T16:13:59;4.10;99.90
9668;DHT22;4872;48.316;10.650;2022-11-30T16:16:29;4.10;99.90
9668;DHT22;4872;48.316;10.650;2022-11-30T16:18:57;4.10;99.90
9668;DHT22;4872;48.316;10.650;2022-11-30T16:21:24;4.10;99.90
9668;DHT22;4872;48.316;10.650;2022-11-30T16:23:51;4.00;99.90
9668;DHT22;4872;48.316;10.650;2022-11-30T16:26:18;4.00;99.90
9668;DHT22;4872;48.316;10.650;2022-11-30T16:28:45;4.00;99.90
9668;DHT22;4872;48.316;10.650;2022-11-30T16:31:15;4.00;99.90
9668;DHT22;4872;48.316;10.650;2022-11-30T16:33:42;4.00;99.90
9668;DHT22;4872;48.316;10.650;2022-11-30T16:36:14;4.00;99.90
9668;DHT22;4872;48.316;10.650;2022-11-30T16:38:42;4.00;99.90
9668;DHT22;4872;48.316;10.650;2022-11-30T16:41:17;4.00;99.90
9668;DHT22;4872;48.316;10.650;2022-11-30T16:43:45;4.00;99.90
9668;DHT22;4872;48.316;10.650;2022-11-30T16:46:14;3.90;99.90
9668;DHT22;4872;48.316;10.650;2022-11-30T16:48:41;4.00;99.90
9668;DHT22;4872;48.316;10.650;2022-11-30T16:51:16;4.00;99.90
9668;DHT22;4872;48.316;10.650;2022-11-30T16:53:43;3.90;99.90
9668;DHT22;4872;48.316;10.650;2022-11-30T16:56:11;4.00;99.90
9668;DHT22;4872;48.316;10.650;2022-11-30T16:58:38;4.00;99.90
9668;DHT22;4872;48.316;10.650;2022-11-30T17:01:10;4.00;99.90
9668;DHT22;4872;48.316;10.650;2022-11-30T17:03:37;4.00;99.90
9668;DHT22;4872;48.316;10.650;2022-11-30T17:06:05;4.00;99.90
9668;DHT22;4872;48.316;10.650;2022-11-30T17:08:34;4.00;99.90
9668;DHT22;4872;48.316;10.650;2022-11-30T17:11:01;4.00;99.90
9668;DHT22;4872;48.316;10.650;2022-11-30T17:13:28;4.00;99.90
9668;DHT22;4872;48.316;10.650;2022-11-30T17:15:55;4.10;99.90
9668;DHT22;4872;48.316;10.650;2022-11-30T17:18:21;4.20;99.90
9668;DHT22;4872;48.316;10.650;2022-11-30T17:20:48;4.00;99.90
9668;DHT22;4872;48.316;10.650;2022-11-30T17:23:15;4.00;99.90
9668;DHT22;4872;48.316;10.650;2022-11-30T17:25:43;4.00;99.90
9668;DHT22;4872;48.316;10.650;2022-11-30T17:28:11;4.00;99.90
9668;DHT22;4872;48.316;10.650;2022-11-30T17:30:38;4.10;99.90
9668;DHT22;4872;48.316;10.650;2022-11-30T17:33:05;4.10;99.90
9668;DHT22;4872;48.316;10.650;2022-11-30T17:35:32;4.00;99.90
9668;DHT22;4872;48.316;10.650;2022-11-30T17:37:59;4.00;99.90
9668;DHT22;4872;48.316;10.650;2022-11-30T17:40:25;4.00;99.90
9668;DHT22;4872;48.316;10.650;2022-11-30T17:42:54;4.00;99.90
9668;DHT22;4872;48.316;10.650;2022-11-30T17:45:20;4.00;99.90
9668;DHT22;4872;48.316;10.650;2022-11-30T17:47:47;4.00;99.90
9668;DHT22;4872;48.316;10.650;2022-11-30T17:50:14;4.10;99.90
9668;DHT22;4872;48.316;10.650;2022-11-30T17:52:41;4.10;99.90
9668;DHT22;4872;48.316;10.650;2022-11-30T17:55:08;4.20;99.90
9668;DHT22;4872;48.316;10.650;2022-11-30T17:57:36;4.10;99.90
9668;DHT22;4872;48.316;10.650;2022-11-30T18:00:06;4.30;99.90
9668;DHT22;4872;48.316;10.650;2022-11-30T18:02:34;4.10;99.90
9668;DHT22;4872;48.316;10.650;2022-11-30T18:05:01;4.10;99.90
9668;DHT22;4872;48.316;10.650;2022-11-30T18:07:27;4.20;99.90
9668;DHT22;4872;48.316;10.650;2022-11-30T18:09:54;4.30;99.90
9668;DHT22;4872;48.316;10.650;2022-11-30T18:12:22;4.20;99.90
9668;DHT22;4872;48.316;10.650;2022-11-30T18:14:49;4.20;99.90
9668;DHT22;4872;48.316;10.650;2022-11-30T18:17:17;4.20;99.90
9668;DHT22;4872;48.316;10.650;2022-11-30T18:19:45;4.20;99.90
9668;DHT22;4872;48.316;10.650;2022-11-30T18:22:12;4.20;99.90
9668;DHT22;4872;48.316;10.650;2022-11-30T18:24:39;4.20;99.90
9668;DHT22;4872;48.316;10.650;2022-11-30T18:27:06;4.20;99.90
9668;DHT22;4872;48.316;10.650;2022-11-30T18:29:33;4.20;99.90
9668;DHT22;4872;48.316;10.650;2022-11-30T18:32:00;4.10;99.90
9668;DHT22;4872;48.316;10.650;2022-11-30T18:34:28;4.10;99.90
9668;DHT22;4872;48.316;10.650;2022-11-30T18:36:55;4.20;99.90
9668;DHT22;4872;48.316;10.650;2022-11-30T18:39:22;4.20;99.90
9668;DHT22;4872;48.316;10.650;2022-11-30T18:41:48;4.20;99.90
9668;DHT22;4872;48.316;10.650;2022-11-30T18:44:15;4.20;99.90
9668;DHT22;4872;48.316;10.650;2022-11-30T18:46:42;4.20;99.90
9668;DHT22;4872;48.316;10.650;2022-11-30T18:49:09;4.20;99.90
9668;DHT22;4872;48.316;10.650;2022-11-30T18:51:37;4.10;99.90
9668;DHT22;4872;48.316;10.650;2022-11-30T18:54:06;4.10;99.90
9668;DHT22;4872;48.316;10.650;2022-11-30T18:56:34;4.10;99.90
9668;DHT22;4872;48.316;10.650;2022-11-30T18:59:03;4.10;99.90
9668;DHT22;4872;48.316;10.650;2022-11-30T19:01:31;4.00;99.90
9668;DHT22;4872;48.316;10.650;2022-11-30T19:03:59;4.00;99.90
9668;DHT22;4872;48.316;10.650;2022-11-30T19:06:27;4.00;99.90
9668;DHT22;4872;48.316;10.650;2022-11-30T19:08:58;4.00;99.90
9668;DHT22;4872;48.316;10.650;2022-11-30T19:11:26;4.00;99.90
9668;DHT22;4872;48.316;10.650;2022-11-30T19:13:53;4.00;99.90
9668;DHT22;4872;48.316;10.650;2022-11-30T19:16:21;4.00;99.90
9668;DHT22;4872;48.316;10.650;2022-11-30T19:18:48;4.00;99.90
9668;DHT22;4872;48.316;10.650;2022-11-30T19:21:17;4.00;99.90
9668;DHT22;4872;48.316;10.650;2022-11-30T19:23:44;3.90;99.90
9668;DHT22;4872;48.316;10.650;2022-11-30T19:26:13;4.00;99.90
9668;DHT22;4872;48.316;10.650;2022-11-30T19:28:41;3.90;99.90
9668;DHT22;4872;48.316;10.650;2022-11-30T19:31:10;3.90;99.90
9668;DHT22;4872;48.316;10.650;2022-11-30T19:33:38;3.90;99.90
9668;DHT22;4872;48.316;10.650;2022-11-30T19:36:08;3.80;99.90
9668;DHT22;4872;48.316;10.650;2022-11-30T19:38:36;3.80;99.90
9668;DHT22;4872;48.316;10.650;2022-11-30T19:41:06;3.70;99.90
9668;DHT22;4872;48.316;10.650;2022-11-30T19:43:34;3.60;99.90
9668;DHT22;4872;48.316;10.650;2022-11-30T19:46:09;3.50;99.90
9668;DHT22;4872;48.316;10.650;2022-11-30T19:48:36;3.60;99.90
9668;DHT22;4872;48.316;10.650;2022-11-30T19:51:05;3.60;99.90
9668;DHT22;4872;48.316;10.650;2022-11-30T19:53:32;3.60;99.90
9668;DHT22;4872;48.316;10.650;2022-11-30T19:56:03;3.60;99.90
9668;DHT22;4872;48.316;10.650;2022-11-30T19:58:30;3.50;99.90
9668;DHT22;4872;48.316;10.650;2022-11-30T20:00:58;3.50;99.90
9668;DHT22;4872;48.316;10.650;2022-11-30T20:03:25;3.40;99.90
9668;DHT22;4872;48.316;10.650;2022-11-30T20:05:52;3.40;99.90
9668;DHT22;4872;48.316;10.650;2022-11-30T20:08:19;3.30;99.90
9668;DHT22;4872;48.316;10.650;2022-11-30T20:10:46;3.30;99.90
9668;DHT22;4872;48.316;10.650;2022-11-30T20:13:13;3.20;99.90
9668;DHT22;4872;48.316;10.650;2022-11-30T20:15:40;3.20;99.90
9668;DHT22;4872;48.316;10.650;2022-11-30T20:18:08;3.30;99.90
9668;DHT22;4872;48.316;10.650;2022-11-30T20:20:35;3.30;99.90
9668;DHT22;4872;48.316;10.650;2022-11-30T20:23:03;3.30;99.90
9668;DHT22;4872;48.316;10.650;2022-11-30T20:25:30;3.30;99.90
9668;DHT22;4872;48.316;10.650;2022-11-30T20:27:57;3.30;99.90
9668;DHT22;4872;48.316;10.650;2022-11-30T20:30:24;3.30;99.90
9668;DHT22;4872;48.316;10.650;2022-11-30T20:32:51;3.30;99.90
9668;DHT22;4872;48.316;10.650;2022-11-30T20:35:19;3.30;99.90
9668;DHT22;4872;48.316;10.650;2022-11-30T20:37:46;3.40;99.90
9668;DHT22;4872;48.316;10.650;2022-11-30T20:40:13;3.30;99.90
9668;DHT22;4872;48.316;10.650;2022-11-30T20:42:40;3.40;99.90
9668;DHT22;4872;48.316;10.650;2022-11-30T20:45:07;3.50;99.90
9668;DHT22;4872;48.316;10.650;2022-11-30T20:47:34;3.50;99.90
9668;DHT22;4872;48.316;10.650;2022-11-30T20:50:01;3.60;99.90
9668;DHT22;4872;48.316;10.650;2022-11-30T20:52:29;3.60;99.90
9668;DHT22;4872;48.316;10.650;2022-11-30T20:54:56;3.70;99.90
9668;DHT22;4872;48.316;10.650;2022-11-30T20:57:24;3.70;99.90
9668;DHT22;4872;48.316;10.650;2022-11-30T20:59:50;3.70;99.90
9668;DHT22;4872;48.316;10.650;2022-11-30T21:02:17;3.70;99.90
9668;DHT22;4872;48.316;10.650;2022-11-30T21:04:44;3.70;99.90
9668;DHT22;4872;48.316;10.650;2022-11-30T21:07:11;3.80;99.90
9668;DHT22;4872;48.316;10.650;2022-11-30T21:09:39;3.80;99.90
9668;DHT22;4872;48.316;10.650;2022-11-30T21:12:06;3.80;99.90
9668;DHT22;4872;48.316;10.650;2022-11-30T21:14:32;3.70;99.90
9668;DHT22;4872;48.316;10.650;2022-11-30T21:16:59;3.70;99.90
9668;DHT22;4872;48.316;10.650;2022-11-30T21:19:26;3.80;99.90
9668;DHT22;4872;48.316;10.650;2022-11-30T21:21:53;3.80;99.90
9668;DHT22;4872;48.316;10.650;2022-11-30T21:24:20;3.80;99.90